createdAt,value
2019-01-31T00:01:33.199Z,99498.27
2019-01-31T00:04:56.627Z,99498.80
2019-01-31T00:07:45.645Z,99495.74
2019-01-31T00:11:09.565Z,99498.68
2019-01-31T00:14:13.967Z,99504.34
2019-01-31T00:16:55.839Z,99499.14
2019-01-31T00:19:34.399Z,99494.70
2019-01-31T00:22:41.307Z,99497.38
2019-01-31T00:25:29.718Z,99497.38
2019-01-31T00:28:44.318Z,99506.55
2019-01-31T00:31:37.644Z,99503.00
2019-01-31T00:34:57.802Z,99498.61
2019-01-31T00:37:43.032Z,99498.22
2019-01-31T00:40:53.309Z,99499.56
2019-01-31T00:44:11.328Z,99498.76
2019-01-31T00:47:27.035Z,99505.25
2019-01-31T00:50:32.131Z,99495.20
2019-01-31T00:53:37.052Z,99497.38
2019-01-31T00:56:55.124Z,99496.01
2019-01-31T00:59:57.137Z,99493.70
2019-01-31T01:02:46.764Z,99498.28
2019-01-31T01:05:40.858Z,99501.38
2019-01-31T01:08:46.884Z,99495.14
2019-01-31T01:11:46.474Z,99496.39
2019-01-31T01:14:54.096Z,99499.38
2019-01-31T01:17:37.835Z,99502.56
2019-01-31T01:20:21.517Z,99495.58
2019-01-31T01:23:30.801Z,99499.44
2019-01-31T01:26:55.036Z,99498.89
2019-01-31T01:29:46.192Z,99506.47
2019-01-31T01:32:50.027Z,99508.59
2019-01-31T01:35:47.896Z,99509.73
2019-01-31T01:38:41.428Z,99508.05
2019-01-31T01:41:54.496Z,99506.67
2019-01-31T01:44:36.305Z,99515.28
2019-01-31T01:47:17.575Z,99519.80
2019-01-31T01:49:52.127Z,99522.23
2019-01-31T01:52:47.786Z,99522.23
2019-01-31T01:55:52.272Z,99521.42
2019-01-31T01:58:29.314Z,99520.05
2019-01-31T02:01:36.893Z,99527.15
2019-01-31T02:11:01.740Z,99526.38
2019-01-31T02:14:09.022Z,99533.33
2019-01-31T02:17:03.480Z,99529.94
2019-01-31T02:20:12.794Z,99534.30
2019-01-31T02:47:20.392Z,99524.31
2019-01-31T02:50:34.884Z,99527.55
2019-01-31T02:53:26.074Z,99523.79
2019-01-31T02:56:04.779Z,99523.16
2019-01-31T02:59:06.956Z,99533.20
2019-01-31T03:02:24.671Z,99530.69
2019-01-31T03:05:21.378Z,99537.72
2019-01-31T03:08:44.406Z,99529.06
2019-01-31T03:11:20.867Z,99529.94
2019-01-31T03:14:28.888Z,99533.00
2019-01-31T03:17:45.623Z,99539.48
2019-01-31T03:20:44.254Z,99534.93
2019-01-31T03:23:48.768Z,99532.80
2019-01-31T03:26:49.080Z,99537.66
2019-01-31T03:29:37.483Z,99540.88
2019-01-31T03:32:37.325Z,99536.16
2019-01-31T03:35:38.232Z,99544.99
2019-01-31T03:38:43.654Z,99539.25
2019-01-31T03:41:31.136Z,99543.08
2019-01-31T03:44:12.880Z,99542.88
2019-01-31T03:47:21.833Z,99537.39
2019-01-31T03:50:00.931Z,99542.45
2019-01-31T03:53:12.953Z,99542.33
2019-01-31T03:56:04.961Z,99540.62
2019-01-31T03:59:14.463Z,99533.97
2019-01-31T04:02:15.661Z,99534.69
2019-01-31T04:05:32.942Z,99539.45
2019-01-31T04:08:00.143Z,99536.95
2019-01-31T04:10:29.685Z,99537.95
2019-01-31T04:12:56.938Z,99543.27
2019-01-31T04:15:24.161Z,99542.27
2019-01-31T04:17:51.389Z,99538.50
2019-01-31T04:20:18.628Z,99546.95
2019-01-31T04:22:45.852Z,99542.10
2019-01-31T04:25:13.069Z,99546.20
2019-01-31T04:27:40.310Z,99546.16
2019-01-31T04:30:10.527Z,99539.80
2019-01-31T04:32:37.759Z,99539.50
2019-01-31T04:35:05.255Z,99536.86
2019-01-31T04:37:32.479Z,99533.77
2019-01-31T04:39:59.711Z,99541.30
2019-01-31T04:42:26.955Z,99536.98
2019-01-31T04:44:54.195Z,99541.84
2019-01-31T04:47:21.432Z,99539.92
2019-01-31T04:49:48.725Z,99533.02
2019-01-31T04:52:15.922Z,99536.11
2019-01-31T04:54:43.211Z,99530.16
2019-01-31T04:57:10.451Z,99537.66
2019-01-31T04:59:37.673Z,99537.61
2019-01-31T05:02:04.908Z,99540.34
2019-01-31T05:04:32.185Z,99538.00
2019-01-31T05:06:59.404Z,99542.10
2019-01-31T05:09:26.683Z,99541.01
2019-01-31T05:11:54.011Z,99537.28
2019-01-31T05:14:21.228Z,99534.69
2019-01-31T05:16:48.452Z,99534.73
2019-01-31T05:19:15.709Z,99539.45
2019-01-31T05:21:42.897Z,99536.19
2019-01-31T05:24:10.121Z,99537.61
2019-01-31T05:26:37.401Z,99532.42
2019-01-31T05:29:04.617Z,99531.46
2019-01-31T05:31:31.833Z,99539.92
2019-01-31T05:33:59.088Z,99533.93
2019-01-31T05:36:26.307Z,99532.13
2019-01-31T05:38:53.518Z,99534.06
2019-01-31T05:41:20.788Z,99535.69
2019-01-31T05:43:48.005Z,99531.75
2019-01-31T05:46:18.292Z,99526.02
2019-01-31T05:48:44.371Z,99530.58
2019-01-31T05:51:11.665Z,99528.45
2019-01-31T05:53:38.878Z,99535.77
2019-01-31T05:56:06.154Z,99537.74
2019-01-31T05:58:33.377Z,99528.73
2019-01-31T06:01:00.578Z,99542.89
2019-01-31T06:03:27.829Z,99541.42
2019-01-31T06:05:55.107Z,99539.04
2019-01-31T06:08:22.349Z,99541.72
2019-01-31T06:10:49.571Z,99544.78
2019-01-31T06:13:16.886Z,99549.77
2019-01-31T06:15:44.122Z,99546.16
2019-01-31T06:18:11.354Z,99549.29
2019-01-31T06:20:38.605Z,99552.09
2019-01-31T06:23:05.818Z,99553.52
2019-01-31T06:25:33.040Z,99546.56
2019-01-31T06:28:00.309Z,99542.13
2019-01-31T06:30:30.242Z,99548.66
2019-01-31T06:32:57.459Z,99544.02
2019-01-31T06:35:24.717Z,99545.19
2019-01-31T06:37:51.955Z,99544.18
2019-01-31T06:40:19.460Z,99541.05
2019-01-31T06:42:46.927Z,99539.25
2019-01-31T06:45:16.398Z,99542.17
2019-01-31T06:47:43.608Z,99544.98
2019-01-31T06:50:10.860Z,99545.06
2019-01-31T06:52:38.284Z,99544.52
2019-01-31T06:55:05.886Z,99550.80
2019-01-31T06:57:33.147Z,99550.52
2019-01-31T07:00:00.341Z,99550.72
2019-01-31T07:02:27.559Z,99557.50
2019-01-31T07:04:54.822Z,99558.58
2019-01-31T07:07:22.076Z,99558.37
2019-01-31T07:09:49.332Z,99554.90
2019-01-31T07:12:16.551Z,99556.80
2019-01-31T07:14:44.604Z,99563.23
2019-01-31T07:17:11.881Z,99566.42
2019-01-31T07:19:39.098Z,99563.98
2019-01-31T07:22:06.434Z,99572.52
2019-01-31T07:24:33.698Z,99571.44
2019-01-31T07:27:00.909Z,99567.88
2019-01-31T07:29:28.144Z,99564.95
2019-01-31T07:31:55.413Z,99567.98
2019-01-31T07:34:22.632Z,99578.16
2019-01-31T07:36:49.858Z,99584.32
2019-01-31T07:39:17.115Z,99579.56
2019-01-31T07:41:44.330Z,99575.05
2019-01-31T07:44:11.547Z,99580.77
2019-01-31T07:46:38.827Z,99581.11
2019-01-31T07:49:06.226Z,99578.67
2019-01-31T07:51:33.521Z,99585.08
2019-01-31T07:54:00.748Z,99579.39
2019-01-31T07:56:27.980Z,99582.74
2019-01-31T07:58:55.238Z,99584.25
2019-01-31T08:01:22.460Z,99583.45
2019-01-31T08:03:49.686Z,99586.18
2019-01-31T08:06:16.938Z,99588.14
2019-01-31T08:08:44.157Z,99582.41
2019-01-31T08:11:11.375Z,99582.08
2019-01-31T08:13:38.629Z,99580.31
2019-01-31T08:16:05.833Z,99583.84
2019-01-31T08:18:33.157Z,99588.58
2019-01-31T08:21:00.418Z,99588.99
2019-01-31T08:23:27.628Z,99598.00
2019-01-31T08:25:54.846Z,99597.72
2019-01-31T08:28:22.132Z,99601.27
2019-01-31T08:30:49.468Z,99602.86
2019-01-31T08:33:16.683Z,99597.17
2019-01-31T08:35:43.934Z,99601.95
2019-01-31T08:38:11.177Z,99603.33
2019-01-31T08:40:38.399Z,99602.49
2019-01-31T08:43:05.659Z,99600.86
2019-01-31T08:45:32.912Z,99604.70
2019-01-31T08:48:00.131Z,99605.92
2019-01-31T08:50:27.958Z,99612.67
2019-01-31T08:52:55.321Z,99613.22
2019-01-31T08:55:22.549Z,99608.56
2019-01-31T08:57:49.775Z,99614.09
2019-01-31T09:00:20.064Z,99616.48
2019-01-31T09:02:47.349Z,99621.08
2019-01-31T09:05:14.684Z,99619.02
2019-01-31T09:07:41.928Z,99628.58
2019-01-31T09:10:13.121Z,99628.15
2019-01-31T09:12:40.330Z,99628.36
2019-01-31T09:15:08.301Z,99629.32
2019-01-31T09:17:35.557Z,99632.88
2019-01-31T09:20:03.757Z,99633.57
2019-01-31T09:22:40.108Z,99637.25
2019-01-31T09:25:46.640Z,99639.59
2019-01-31T09:28:33.186Z,99638.56
2019-01-31T09:31:38.030Z,99643.42
2019-01-31T09:34:49.458Z,99644.91
2019-01-31T09:38:03.549Z,99645.13
2019-01-31T09:41:15.280Z,99649.57
2019-01-31T09:44:42.696Z,99652.20
2019-01-31T09:47:50.743Z,99655.86
2019-01-31T09:50:45.201Z,99657.91
2019-01-31T09:53:41.919Z,99651.29
2019-01-31T09:56:55.948Z,99666.92
2019-01-31T09:59:44.047Z,99666.33
2019-01-31T10:02:55.101Z,99664.83
2019-01-31T10:06:18.380Z,99667.97
2019-01-31T10:09:21.450Z,99670.36
2019-01-31T10:12:38.184Z,99684.86
2019-01-31T10:15:38.148Z,99686.03
2019-01-31T10:18:36.070Z,99691.56
2019-01-31T10:21:33.552Z,99693.04
2019-01-31T10:24:36.971Z,99700.71
2019-01-31T10:27:48.891Z,99699.58
2019-01-31T10:30:56.244Z,99704.69
2019-01-31T10:34:23.645Z,99706.45
2019-01-31T10:37:20.182Z,99697.69
2019-01-31T10:39:56.616Z,99700.91
2019-01-31T10:42:32.306Z,99702.08
2019-01-31T10:45:49.331Z,99705.78
2019-01-31T10:48:48.455Z,99708.38
2019-01-31T10:52:09.500Z,99708.54
2019-01-31T10:55:06.300Z,99715.97
2019-01-31T10:58:08.730Z,99716.72
2019-01-31T11:01:36.002Z,99704.27
2019-01-31T11:04:47.599Z,99716.47
2019-01-31T11:08:02.557Z,99713.87
2019-01-31T11:10:51.093Z,99716.72
2019-01-31T11:13:54.348Z,99720.16
2019-01-31T11:16:56.866Z,99719.20
2019-01-31T11:19:38.963Z,99723.34
2019-01-31T11:22:53.987Z,99715.97
2019-01-31T11:26:05.745Z,99719.03
2019-01-31T11:29:10.434Z,99720.08
2019-01-31T11:32:11.817Z,99718.48
2019-01-31T11:35:15.398Z,99716.05
2019-01-31T11:38:05.784Z,99713.02
2019-01-31T11:41:10.669Z,99712.73
2019-01-31T11:44:29.653Z,99719.31
2019-01-31T11:47:20.457Z,99716.33
2019-01-31T11:50:08.833Z,99730.45
2019-01-31T11:52:50.712Z,99726.17
2019-01-31T11:55:48.746Z,99728.19
2019-01-31T11:58:42.885Z,99723.97
2019-01-31T12:01:10.432Z,99724.48
2019-01-31T12:03:38.084Z,99716.27
2019-01-31T12:06:05.437Z,99713.09
2019-01-31T12:08:32.658Z,99705.41
2019-01-31T12:10:59.858Z,99708.38
2019-01-31T12:13:27.132Z,99707.81
2019-01-31T12:15:54.348Z,99709.84
2019-01-31T12:18:21.553Z,99707.25
2019-01-31T12:20:48.851Z,99705.83
2019-01-31T12:23:16.081Z,99714.06
2019-01-31T12:25:43.322Z,99718.27
2019-01-31T12:28:10.679Z,99717.70
2019-01-31T12:30:37.918Z,99718.66
2019-01-31T12:33:05.145Z,99711.80
2019-01-31T12:35:32.396Z,99708.84
2019-01-31T12:37:59.618Z,99706.96
2019-01-31T12:40:26.936Z,99712.77
2019-01-31T12:42:54.195Z,99713.42
2019-01-31T12:45:21.529Z,99716.06
2019-01-31T12:47:48.772Z,99717.25
2019-01-31T12:50:22.018Z,99719.48
2019-01-31T12:52:49.336Z,99718.80
2019-01-31T12:55:16.574Z,99712.93
2019-01-31T12:57:44.768Z,99713.04
2019-01-31T13:00:16.849Z,99715.19
2019-01-31T13:02:44.068Z,99719.27
2019-01-31T13:05:12.738Z,99711.44
2019-01-31T13:07:40.968Z,99714.70
2019-01-31T13:10:08.629Z,99713.16
2019-01-31T13:12:35.853Z,99706.23
2019-01-31T13:15:03.838Z,99711.75
2019-01-31T13:17:31.277Z,99706.70
2019-01-31T13:19:58.525Z,99707.78
2019-01-31T13:22:25.743Z,99705.70
2019-01-31T13:24:52.997Z,99708.56
2019-01-31T13:27:20.203Z,99711.75
2019-01-31T13:29:47.425Z,99707.50
2019-01-31T13:32:14.686Z,99714.05
2019-01-31T13:34:41.934Z,99712.21
2019-01-31T13:37:09.266Z,99709.91
2019-01-31T13:39:36.542Z,99713.22
2019-01-31T13:42:04.045Z,99705.76
2019-01-31T13:44:31.352Z,99714.19
2019-01-31T13:46:58.712Z,99716.67
2019-01-31T13:49:25.935Z,99713.88
2019-01-31T13:51:53.196Z,99711.83
2019-01-31T13:54:20.473Z,99712.12
2019-01-31T13:56:47.695Z,99719.67
2019-01-31T13:59:14.957Z,99718.34
2019-01-31T14:01:42.236Z,99730.80
2019-01-31T14:04:09.461Z,99733.20
2019-01-31T14:06:36.713Z,99729.49
2019-01-31T14:09:07.583Z,99730.30
2019-01-31T14:11:34.812Z,99730.88
2019-01-31T14:14:08.738Z,99735.65
2019-01-31T14:16:31.217Z,99732.13
2019-01-31T14:18:58.469Z,99736.08
2019-01-31T14:21:25.711Z,99736.38
2019-01-31T14:23:53.416Z,99736.61
2019-01-31T14:26:20.626Z,99738.14
2019-01-31T14:28:47.906Z,99740.48
2019-01-31T14:31:15.326Z,99736.16
2019-01-31T14:33:42.549Z,99734.55
2019-01-31T14:36:09.795Z,99739.09
2019-01-31T14:38:37.022Z,99748.24
2019-01-31T14:41:04.358Z,99753.33
2019-01-31T14:43:31.578Z,99758.73
2019-01-31T14:45:58.812Z,99757.75
2019-01-31T14:48:26.038Z,99755.98
2019-01-31T14:50:53.343Z,99764.08
2019-01-31T14:53:20.606Z,99765.58
2019-01-31T14:55:47.820Z,99768.72
2019-01-31T14:58:15.155Z,99781.02
2019-01-31T15:00:42.375Z,99785.31
2019-01-31T15:03:09.647Z,99780.85
2019-01-31T15:05:37.068Z,99778.84
2019-01-31T15:08:04.780Z,99782.97
2019-01-31T15:10:32.157Z,99785.13
2019-01-31T15:12:59.387Z,99779.78
2019-01-31T15:15:26.618Z,99781.21
2019-01-31T15:17:54.000Z,99780.53
2019-01-31T15:20:35.796Z,99780.20
2019-01-31T15:22:55.442Z,99777.73
2019-01-31T15:25:22.796Z,99778.83
2019-01-31T15:27:50.173Z,99778.56
2019-01-31T15:30:20.763Z,99772.06
2019-01-31T15:32:48.012Z,99772.41
2019-01-31T15:35:16.645Z,99768.04
2019-01-31T15:37:43.916Z,99775.47
2019-01-31T15:40:15.455Z,99762.63
2019-01-31T15:42:42.664Z,99769.93
2019-01-31T15:45:10.216Z,99761.12
2019-01-31T15:47:37.437Z,99766.49
2019-01-31T15:50:06.429Z,99762.63
2019-01-31T15:52:33.804Z,99770.22
2019-01-31T15:55:01.084Z,99763.51
2019-01-31T15:57:28.317Z,99771.44
2019-01-31T15:59:55.542Z,99772.48
2019-01-31T16:02:22.773Z,99771.19
2019-01-31T16:04:50.036Z,99769.17
2019-01-31T16:07:17.260Z,99767.95
2019-01-31T16:09:44.489Z,99773.50
2019-01-31T16:12:12.070Z,99771.29
2019-01-31T16:14:39.424Z,99771.17
2019-01-31T16:17:06.806Z,99770.00
2019-01-31T16:19:34.071Z,99766.46
2019-01-31T16:22:01.285Z,99761.84
2019-01-31T16:24:28.505Z,99763.89
2019-01-31T16:26:55.797Z,99765.61
2019-01-31T16:29:23.041Z,99755.18
2019-01-31T16:31:50.519Z,99759.05
2019-01-31T16:34:17.789Z,99752.27
2019-01-31T16:36:45.103Z,99754.75
2019-01-31T16:39:12.358Z,99752.73
2019-01-31T16:41:39.579Z,99755.15
2019-01-31T16:44:07.183Z,99751.45
2019-01-31T16:46:36.480Z,99749.06
2019-01-31T16:49:03.980Z,99744.38
2019-01-31T16:51:31.387Z,99745.85
2019-01-31T16:53:58.669Z,99741.75
2019-01-31T16:56:25.939Z,99743.53
2019-01-31T16:58:53.755Z,99742.98
2019-01-31T17:01:20.955Z,99744.84
2019-01-31T17:03:48.210Z,99752.73
2019-01-31T17:06:15.413Z,99757.00
2019-01-31T17:08:42.655Z,99757.97
2019-01-31T17:11:09.856Z,99760.01
2019-01-31T17:13:37.062Z,99759.19
2019-01-31T17:16:04.330Z,99759.77
2019-01-31T17:18:31.530Z,99763.27
2019-01-31T17:20:58.752Z,99762.09
2019-01-31T17:23:26.012Z,99755.55
2019-01-31T17:25:53.241Z,99750.34
2019-01-31T17:28:20.453Z,99748.17
2019-01-31T17:30:47.742Z,99750.13
2019-01-31T17:33:14.973Z,99748.03
2019-01-31T17:35:42.215Z,99746.67
2019-01-31T17:38:09.655Z,99744.36
2019-01-31T17:40:38.735Z,99751.02
2019-01-31T17:43:07.145Z,99748.46
2019-01-31T17:45:34.355Z,99752.17
2019-01-31T17:48:01.690Z,99742.28
2019-01-31T17:50:28.920Z,99741.81
2019-01-31T17:52:56.328Z,99737.72
2019-01-31T17:55:23.799Z,99741.09
2019-01-31T17:57:51.327Z,99743.49
2019-01-31T18:00:24.657Z,99735.50
2019-01-31T18:02:51.909Z,99737.36
2019-01-31T18:05:19.125Z,99733.94
2019-01-31T18:07:46.371Z,99735.70
2019-01-31T18:10:16.426Z,99733.52
2019-01-31T18:12:43.740Z,99729.60
2019-01-31T18:15:11.638Z,99721.45
2019-01-31T18:17:38.911Z,99722.16
2019-01-31T18:20:07.458Z,99722.07
2019-01-31T18:22:34.672Z,99721.60
2019-01-31T18:25:01.943Z,99716.95
2019-01-31T18:27:29.165Z,99716.41
2019-01-31T18:29:59.197Z,99717.89
2019-01-31T18:32:26.481Z,99717.75
2019-01-31T18:34:53.742Z,99719.00
2019-01-31T18:37:20.985Z,99721.05
2019-01-31T18:39:48.222Z,99720.58
2019-01-31T18:42:15.566Z,99726.07
2019-01-31T18:44:43.750Z,99727.28
2019-01-31T18:47:11.124Z,99740.36
2019-01-31T18:49:38.397Z,99736.28
2019-01-31T18:52:05.698Z,99740.03
2019-01-31T18:54:32.932Z,99748.17
2019-01-31T18:57:00.182Z,99743.89
2019-01-31T18:59:27.433Z,99738.20
2019-01-31T19:01:54.658Z,99737.90
2019-01-31T19:04:21.894Z,99734.52
2019-01-31T19:06:49.122Z,99726.65
2019-01-31T19:09:16.331Z,99730.95
2019-01-31T19:11:43.598Z,99725.92
2019-01-31T19:14:10.933Z,99719.75
2019-01-31T19:16:38.214Z,99719.22
2019-01-31T19:19:05.532Z,99723.16
2019-01-31T19:21:32.771Z,99718.49
2019-01-31T19:24:00.053Z,99715.30
2019-01-31T19:26:27.471Z,99707.28
2019-01-31T19:28:54.685Z,99707.69
2019-01-31T19:31:22.016Z,99713.02
2019-01-31T19:33:51.714Z,99711.87
2019-01-31T19:36:18.417Z,99712.81
2019-01-31T19:38:45.658Z,99712.04
2019-01-31T19:41:12.889Z,99706.65
2019-01-31T19:43:40.130Z,99717.55
2019-01-31T19:46:16.217Z,99723.25
2019-01-31T19:48:36.661Z,99713.78
2019-01-31T19:51:04.317Z,99711.63
2019-01-31T19:53:31.631Z,99703.14
2019-01-31T19:55:58.876Z,99700.97
2019-01-31T19:58:26.168Z,99700.08
2019-01-31T20:00:53.392Z,99694.81
2019-01-31T20:03:20.638Z,99702.67
2019-01-31T20:05:47.894Z,99696.87
2019-01-31T20:08:15.334Z,99694.91
2019-01-31T20:10:42.720Z,99697.44
2019-01-31T20:13:09.966Z,99692.27
2019-01-31T20:15:37.195Z,99688.03
2019-01-31T20:18:04.946Z,99688.69
2019-01-31T20:20:32.223Z,99691.19
2019-01-31T20:22:59.565Z,99690.92
2019-01-31T20:25:27.649Z,99687.08
2019-01-31T20:27:54.921Z,99685.90
2019-01-31T20:30:24.360Z,99680.41
2019-01-31T20:32:51.914Z,99677.00
2019-01-31T20:35:19.571Z,99681.55
2019-01-31T20:37:46.798Z,99677.16
2019-01-31T20:40:16.328Z,99679.22
2019-01-31T20:42:43.629Z,99677.36
2019-01-31T20:45:11.856Z,99680.52
2019-01-31T20:47:39.205Z,99678.75
2019-01-31T20:50:10.129Z,99672.66
2019-01-31T20:52:37.613Z,99675.66
2019-01-31T20:55:06.187Z,99679.85
2019-01-31T20:57:33.492Z,99680.77
2019-01-31T21:00:00.694Z,99675.28
2019-01-31T21:02:27.945Z,99677.86
2019-01-31T21:04:55.209Z,99677.83
2019-01-31T21:07:22.456Z,99673.00
2019-01-31T21:09:49.669Z,99669.68
2019-01-31T21:12:17.148Z,99666.53
2019-01-31T21:14:44.358Z,99663.22
2019-01-31T21:17:11.563Z,99661.99
2019-01-31T21:19:38.819Z,99659.25
2019-01-31T21:22:06.140Z,99662.72
2019-01-31T21:24:33.418Z,99657.95
2019-01-31T21:27:00.649Z,99655.11
2019-01-31T21:29:27.924Z,99650.19
2019-01-31T21:31:55.162Z,99654.07
2019-01-31T21:34:23.187Z,99648.89
2019-01-31T21:36:50.457Z,99641.70
2019-01-31T21:39:17.705Z,99643.00
2019-01-31T21:41:44.982Z,99648.89
2019-01-31T21:44:12.224Z,99648.55
2019-01-31T21:46:39.472Z,99651.95
2019-01-31T21:49:06.735Z,99643.97
2019-01-31T21:51:37.397Z,99639.83
2019-01-31T21:54:04.815Z,99642.25
2019-01-31T21:56:32.082Z,99634.19
2019-01-31T21:58:59.326Z,99637.09
2019-01-31T22:01:26.567Z,99625.28
2019-01-31T22:03:53.807Z,99634.02
2019-01-31T22:06:22.702Z,99629.58
2019-01-31T22:08:50.226Z,99629.47
2019-01-31T22:11:17.504Z,99627.77
2019-01-31T22:13:44.735Z,99616.86
2019-01-31T22:16:12.012Z,99619.45
2019-01-31T22:18:39.356Z,99618.31
2019-01-31T22:21:06.583Z,99615.25
2019-01-31T22:23:33.815Z,99608.78
2019-01-31T22:26:01.147Z,99596.64
2019-01-31T22:28:28.464Z,99607.09
2019-01-31T22:30:55.758Z,99603.03
2019-01-31T22:33:23.369Z,99602.48
2019-01-31T22:35:50.836Z,99596.98
2019-01-31T22:38:18.074Z,99598.41
2019-01-31T22:40:45.632Z,99593.66
2019-01-31T22:43:12.877Z,99584.84
2019-01-31T22:45:40.207Z,99585.89
2019-01-31T22:48:07.489Z,99584.34
2019-01-31T22:50:34.827Z,99582.66
2019-01-31T22:53:02.048Z,99581.12
2019-01-31T22:55:29.322Z,99577.72
2019-01-31T22:57:56.546Z,99569.00
2019-01-31T23:00:32.123Z,99564.95
2019-01-31T23:02:59.381Z,99561.38
2019-01-31T23:05:26.630Z,99549.23
2019-01-31T23:07:54.002Z,99550.55
2019-01-31T23:10:21.322Z,99545.46
2019-01-31T23:12:48.546Z,99541.08
2019-01-31T23:15:18.509Z,99548.30
2019-01-31T23:17:45.727Z,99540.94
2019-01-31T23:20:13.450Z,99535.84
2019-01-31T23:22:40.816Z,99538.13
2019-01-31T23:25:08.337Z,99535.53
2019-01-31T23:27:35.565Z,99530.36
2019-01-31T23:30:05.303Z,99520.50
2019-01-31T23:32:32.525Z,99529.94
2019-01-31T23:34:59.757Z,99522.84
2019-01-31T23:37:27.179Z,99523.97
2019-01-31T23:39:54.507Z,99523.56
2019-01-31T23:42:21.733Z,99521.45
2019-01-31T23:44:48.993Z,99523.63
2019-01-31T23:47:16.216Z,99529.31
2019-01-31T23:49:43.441Z,99532.22
2019-01-31T23:52:11.083Z,99546.13
2019-01-31T23:54:38.392Z,99535.20
2019-01-31T23:57:05.622Z,99531.81
2019-01-31T23:59:32.884Z,99533.57
